Hl Boryeong — 3FYM — position and weather

sailwx.info

Track history (hours):
 
Tides and Currents Weather Stations Pressure Air Temp Water Temp Dewpoint Dewpoint Depression Visibility Wind Speed Wind Dir Waves Ship Positions

Hl Boryeong

Last reported at 2016-Dec-21 15:26 UTC. Time now 2017-Jan-20 16:11 UTC.
Position S 26°27' E 154°04'.
Warning: this ship's position is 30 days out of date.

Length 273 m; draft 15 m.

Type: Cargo ship. MMSI: 374471000.

Date/timePositionNaut miles runAvg speedWind from/ knotsBaromVisibWave heightAir tempDewpointWater temp
2016-Dec-21 15:26S 26°27' E 154°04'1212.0
2016-Dec-21 14:24S 26°39' E 154°04'1011.7
2016-Dec-21 13:33S 26°49' E 154°04'1111.4
2016-Dec-21 12:33S 27°00' E 154°04'3711.1
2016-Dec-21 09:16S 27°37' E 154°03'910.4
2016-Dec-21 08:22S 27°46' E 154°03'8 9.7
2016-Dec-21 07:31S 27°55' E 154°03'9 9.4
2016-Dec-21 06:33S 28°04' E 154°03'9 9.5
2016-Dec-21 05:33S 28°13' E 154°02'1111.0
2016-Dec-21 04:34S 28°24' E 154°02'244 8.6
2016-Dec-20 00:12S 32°19' E 152°48'6 9.3
2016-Dec-19 23:33S 32°25' E 152°46'9 9.5
2016-Dec-19 22:34S 32°33' E 152°40'9 9.1
2016-Dec-19 21:34S 32°40' E 152°33'9 8.5
2016-Dec-19 20:34S 32°47' E 152°27'8 8.5
2016-Dec-19 19:33S 32°52' E 152°19'9 8.7
2016-Dec-19 18:34S 32°55' E 152°09'9 9.4
2016-Dec-19 17:33S 32°56' E 151°58'8 8.0
2016-Dec-19 16:33S 32°55' E 151°48'3 2.8
2016-Dec-19 15:33S 32°53' E 151°45'0 0.3
2016-Dec-19 14:28S 32°53' E 151°45'0 0.0
2016-Dec-19 13:31S 32°53' E 151°45'0 0.0
2016-Dec-19 12:31S 32°53' E 151°45'0 0.0
2016-Dec-19 11:31S 32°53' E 151°45'0 0.0
2016-Dec-19 10:31S 32°53' E 151°45'0 0.0
2016-Dec-19 09:31S 32°53' E 151°45'0 0.0
2016-Dec-19 07:19S 32°53' E 151°45'0 0.0
2016-Dec-19 06:28S 32°53' E 151°45'0 0.0
2016-Dec-19 05:31S 32°53' E 151°45'0 0.0
2016-Dec-19 04:28S 32°53' E 151°45'0 0.0
2016-Dec-19 03:31S 32°53' E 151°45'0 0.0
2016-Dec-19 02:31S 32°53' E 151°45'0 0.0
2016-Dec-19 01:28S 32°53' E 151°45'0 0.0
2016-Dec-19 00:30S 32°53' E 151°45'0 0.0
2016-Dec-18 23:30S 32°53' E 151°45'0 0.0
2016-Dec-18 22:33S 32°53' E 151°45'0 0.0
2016-Dec-18 21:30S 32°53' E 151°45'0 0.0
2016-Dec-18 20:24S 32°53' E 151°45'0 0.0
2016-Dec-18 19:30S 32°53' E 151°45'0 0.0
2016-Dec-18 18:24S 32°53' E 151°45'0 0.0
2016-Dec-18 17:24S 32°53' E 151°45'0 0.0
2016-Dec-18 16:30S 32°53' E 151°45'0 0.0
2016-Dec-18 14:30S 32°53' E 151°45'0 0.0
2016-Dec-18 13:30S 32°53' E 151°45'0 0.0
2016-Dec-18 12:24S 32°53' E 151°45'0 0.0
2016-Dec-18 11:33S 32°53' E 151°45'0 0.0
2016-Dec-18 10:30S 32°53' E 151°45'0 0.0
2016-Dec-18 09:30S 32°53' E 151°45'0 0.0
2016-Dec-18 08:12S 32°53' E 151°45'0 0.0
2016-Dec-18 07:30S 32°53' E 151°45'0 0.0
2016-Dec-18 06:30S 32°53' E 151°45'0 0.0
2016-Dec-18 05:33S 32°53' E 151°45'0 0.0
2016-Dec-18 04:30S 32°53' E 151°45'0 0.0
2016-Dec-18 03:30S 32°53' E 151°45'0 0.0
2016-Dec-18 02:30S 32°53' E 151°45'0 0.0
2016-Dec-18 01:33S 32°53' E 151°45'2 2.0
2016-Dec-18 00:33S 32°55' E 151°46'3 3.5
2016-Dec-17 23:33S 32°54' E 151°51'1010.1
2016-Dec-17 22:33S 33°03' E 151°56'1212.4
2016-Dec-17 21:33S 33°12' E 152°07'6 5.3
2016-Dec-17 20:21S 33°17' E 152°12'1 1.7
2016-Dec-17 19:33S 33°18' E 152°12'7 1.2
2016-Dec-17 13:33S 33°24' E 152°08'2 1.6
2016-Dec-17 12:33S 33°23' E 152°07'3 3.0
2016-Dec-17 11:33S 33°20' E 152°08'3 3.1
2016-Dec-17 10:33S 33°17' E 152°09'3 3.1
2016-Dec-17 09:33S 33°14' E 152°10'3 3.0
2016-Dec-17 08:33S 33°11' E 152°12'3 3.1
2016-Dec-17 07:33S 33°08' E 152°13'3 3.1
2016-Dec-17 06:33S 33°06' E 152°15'3 2.9
2016-Dec-17 05:33S 33°03' E 152°17'2 2.4
2016-Dec-17 04:33S 33°01' E 152°18'4 4.3
2016-Dec-17 03:33S 33°05' E 152°17'9 9.5
2016-Dec-17 02:33S 33°15' E 152°16'9 9.4
2016-Dec-17 01:33S 33°24' E 152°17'11 1.1
2016-Dec-16 15:20S 33°35' E 152°15'11 3.5
2016-Dec-16 12:11S 33°24' E 152°18'6 3.2
2016-Dec-16 10:10S 33°18' E 152°19'3 3.2
2016-Dec-16 09:18S 33°15' E 152°20'2 3.2
2016-Dec-16 08:33S 33°13' E 152°21'3 2.9
2016-Dec-16 07:33S 33°10' E 152°22'3 2.5
2016-Dec-16 06:33S 33°08' E 152°23'2 2.1
2016-Dec-16 05:33S 33°06' E 152°24'2 2.1
2016-Dec-16 04:33S 33°04' E 152°25'2 2.0
2016-Dec-16 03:33S 33°02' E 152°26'2 1.6
2016-Dec-16 02:33S 33°01' E 152°27'1 1.4
2016-Dec-16 01:33S 33°00' E 152°29'1 1.1
2016-Dec-16 00:33S 32°60' E 152°30'0 0.3
2016-Dec-15 23:33S 32°60' E 152°30'0 0.5
2016-Dec-15 22:33S 32°59' E 152°29'0 0.3
2016-Dec-15 21:33S 32°59' E 152°29'0 0.3
2016-Dec-15 20:33S 32°59' E 152°29'0 0.2
2016-Dec-15 19:33S 32°59' E 152°29'0 0.1
2016-Dec-15 18:33S 32°59' E 152°29'0 0.1
2016-Dec-15 17:33S 32°59' E 152°29'0 0.3
2016-Dec-15 16:33S 32°59' E 152°29'1 0.6
2016-Dec-15 15:33S 32°59' E 152°30'1 1.4
2016-Dec-15 14:33S 32°58' E 152°30'1010.0
2016-Dec-15 13:33S 32°48' E 152°33'1010.0
2016-Dec-15 12:33S 32°39' E 152°36'11 9.7
2016-Dec-15 11:23S 32°28' E 152°41'28811.5
2016-Dec-14 10:21S 27°49' E 154°02'1214.3
2016-Dec-14 09:32S 27°37' E 154°02'2914.4
2016-Dec-14 07:32S 27°08' E 154°02'1715.9
2016-Dec-14 06:29S 26°51' E 154°03'1413.5
2016-Dec-14 05:28S 26°38' E 154°03'1512.8
2016-Dec-14 04:16S 26°22' E 154°04'  
Track history (hours):
 
Tides and Currents Weather Stations Pressure Air Temp Water Temp Dewpoint Dewpoint Depression Visibility Wind Speed Wind Dir Waves Ship Positions

Hl Boryeong

Last reported at 2016-Dec-21 15:26 UTC. Time now 2017-Jan-20 16:11 UTC.
Position S 26°27' E 154°04'.
Warning: this ship's position is 30 days out of date.

Length 273 m; draft 15 m.

Type: Cargo ship. MMSI: 374471000.

Date/timePositionNaut miles runAvg speedWind from/ knotsBaromVisibWave heightAir tempDewpointWater temp
2016-Dec-21 15:26S 26°27' E 154°04'1212.0
2016-Dec-21 14:24S 26°39' E 154°04'1011.7
2016-Dec-21 13:33S 26°49' E 154°04'1111.4
2016-Dec-21 12:33S 27°00' E 154°04'3711.1
2016-Dec-21 09:16S 27°37' E 154°03'910.4
2016-Dec-21 08:22S 27°46' E 154°03'8 9.7
2016-Dec-21 07:31S 27°55' E 154°03'9 9.4
2016-Dec-21 06:33S 28°04' E 154°03'9 9.5
2016-Dec-21 05:33S 28°13' E 154°02'1111.0
2016-Dec-21 04:34S 28°24' E 154°02'244 8.6
2016-Dec-20 00:12S 32°19' E 152°48'6 9.3
2016-Dec-19 23:33S 32°25' E 152°46'9 9.5
2016-Dec-19 22:34S 32°33' E 152°40'9 9.1
2016-Dec-19 21:34S 32°40' E 152°33'9 8.5
2016-Dec-19 20:34S 32°47' E 152°27'8 8.5
2016-Dec-19 19:33S 32°52' E 152°19'9 8.7
2016-Dec-19 18:34S 32°55' E 152°09'9 9.4
2016-Dec-19 17:33S 32°56' E 151°58'8 8.0
2016-Dec-19 16:33S 32°55' E 151°48'3 2.8
2016-Dec-19 15:33S 32°53' E 151°45'0 0.3
2016-Dec-19 14:28S 32°53' E 151°45'0 0.0
2016-Dec-19 13:31S 32°53' E 151°45'0 0.0
2016-Dec-19 12:31S 32°53' E 151°45'0 0.0
2016-Dec-19 11:31S 32°53' E 151°45'0 0.0
2016-Dec-19 10:31S 32°53' E 151°45'0 0.0
2016-Dec-19 09:31S 32°53' E 151°45'0 0.0
2016-Dec-19 07:19S 32°53' E 151°45'0 0.0
2016-Dec-19 06:28S 32°53' E 151°45'0 0.0
2016-Dec-19 05:31S 32°53' E 151°45'0 0.0
2016-Dec-19 04:28S 32°53' E 151°45'0 0.0
2016-Dec-19 03:31S 32°53' E 151°45'0 0.0
2016-Dec-19 02:31S 32°53' E 151°45'0 0.0
2016-Dec-19 01:28S 32°53' E 151°45'0 0.0
2016-Dec-19 00:30S 32°53' E 151°45'0 0.0
2016-Dec-18 23:30S 32°53' E 151°45'0 0.0
2016-Dec-18 22:33S 32°53' E 151°45'0 0.0
2016-Dec-18 21:30S 32°53' E 151°45'0 0.0
2016-Dec-18 20:24S 32°53' E 151°45'0 0.0
2016-Dec-18 19:30S 32°53' E 151°45'0 0.0
2016-Dec-18 18:24S 32°53' E 151°45'0 0.0
2016-Dec-18 17:24S 32°53' E 151°45'0 0.0
2016-Dec-18 16:30S 32°53' E 151°45'0 0.0
2016-Dec-18 14:30S 32°53' E 151°45'0 0.0
2016-Dec-18 13:30S 32°53' E 151°45'0 0.0
2016-Dec-18 12:24S 32°53' E 151°45'0 0.0
2016-Dec-18 11:33S 32°53' E 151°45'0 0.0
2016-Dec-18 10:30S 32°53' E 151°45'0 0.0
2016-Dec-18 09:30S 32°53' E 151°45'0 0.0
2016-Dec-18 08:12S 32°53' E 151°45'0 0.0
2016-Dec-18 07:30S 32°53' E 151°45'0 0.0
2016-Dec-18 06:30S 32°53' E 151°45'0 0.0
2016-Dec-18 05:33S 32°53' E 151°45'0 0.0
2016-Dec-18 04:30S 32°53' E 151°45'0 0.0
2016-Dec-18 03:30S 32°53' E 151°45'0 0.0
2016-Dec-18 02:30S 32°53' E 151°45'0 0.0
2016-Dec-18 01:33S 32°53' E 151°45'2 2.0
2016-Dec-18 00:33S 32°55' E 151°46'3 3.5
2016-Dec-17 23:33S 32°54' E 151°51'1010.1
2016-Dec-17 22:33S 33°03' E 151°56'1212.4
2016-Dec-17 21:33S 33°12' E 152°07'6 5.3
2016-Dec-17 20:21S 33°17' E 152°12'1 1.7
2016-Dec-17 19:33S 33°18' E 152°12'7 1.2
2016-Dec-17 13:33S 33°24' E 152°08'2 1.6
2016-Dec-17 12:33S 33°23' E 152°07'3 3.0
2016-Dec-17 11:33S 33°20' E 152°08'3 3.1
2016-Dec-17 10:33S 33°17' E 152°09'3 3.1
2016-Dec-17 09:33S 33°14' E 152°10'3 3.0
2016-Dec-17 08:33S 33°11' E 152°12'3 3.1
2016-Dec-17 07:33S 33°08' E 152°13'3 3.1
2016-Dec-17 06:33S 33°06' E 152°15'3 2.9
2016-Dec-17 05:33S 33°03' E 152°17'2 2.4
2016-Dec-17 04:33S 33°01' E 152°18'4 4.3
2016-Dec-17 03:33S 33°05' E 152°17'9 9.5
2016-Dec-17 02:33S 33°15' E 152°16'9 9.4
2016-Dec-17 01:33S 33°24' E 152°17'11 1.1
2016-Dec-16 15:20S 33°35' E 152°15'11 3.5
2016-Dec-16 12:11S 33°24' E 152°18'6 3.2
2016-Dec-16 10:10S 33°18' E 152°19'3 3.2
2016-Dec-16 09:18S 33°15' E 152°20'2 3.2
2016-Dec-16 08:33S 33°13' E 152°21'3 2.9
2016-Dec-16 07:33S 33°10' E 152°22'3 2.5
2016-Dec-16 06:33S 33°08' E 152°23'2 2.1
2016-Dec-16 05:33S 33°06' E 152°24'2 2.1
2016-Dec-16 04:33S 33°04' E 152°25'2 2.0
2016-Dec-16 03:33S 33°02' E 152°26'2 1.6
2016-Dec-16 02:33S 33°01' E 152°27'1 1.4
2016-Dec-16 01:33S 33°00' E 152°29'1 1.1
2016-Dec-16 00:33S 32°60' E 152°30'0 0.3
2016-Dec-15 23:33S 32°60' E 152°30'0 0.5
2016-Dec-15 22:33S 32°59' E 152°29'0 0.3
2016-Dec-15 21:33S 32°59' E 152°29'0 0.3
2016-Dec-15 20:33S 32°59' E 152°29'0 0.2
2016-Dec-15 19:33S 32°59' E 152°29'0 0.1
2016-Dec-15 18:33S 32°59' E 152°29'0 0.1
2016-Dec-15 17:33S 32°59' E 152°29'0 0.3
2016-Dec-15 16:33S 32°59' E 152°29'1 0.6
2016-Dec-15 15:33S 32°59' E 152°30'1 1.4
2016-Dec-15 14:33S 32°58' E 152°30'1010.0
2016-Dec-15 13:33S 32°48' E 152°33'1010.0
2016-Dec-15 12:33S 32°39' E 152°36'11 9.7
2016-Dec-15 11:23S 32°28' E 152°41'28811.5
2016-Dec-14 10:21S 27°49' E 154°02'1214.3
2016-Dec-14 09:32S 27°37' E 154°02'2914.4
2016-Dec-14 07:32S 27°08' E 154°02'1715.9
2016-Dec-14 06:29S 26°51' E 154°03'1413.5
2016-Dec-14 05:28S 26°38' E 154°03'1512.8
2016-Dec-14 04:16S 26°22' E 154°04'  

Dump ship's entire track history